Time,TemperatureF,DewpointF,PressureIn,WindDirection,WindDirectionDegrees,WindSpeedMPH,WindSpeedGustMPH,Humidity,HourlyPrecipIn,Conditions,Clouds,dailyrainin,SoftwareType,DateUTC
2013-05-23 00:01:00,46.6,43.5,30.01,NNW,347,0.0,2.0,89,0.00,,SCT110,0.00,VWS V14.01,2013-05-23 05:01:00,
2013-05-23 00:06:00,46.4,43.3,30.01,NNE,25,0.0,4.0,89,0.00,,SCT110,0.00,VWS V14.01,2013-05-23 05:06:00,
2013-05-23 00:11:00,46.3,43.2,30.01,ENE,67,1.0,4.0,89,0.00,,SCT110,0.00,VWS V14.01,2013-05-23 05:11:00,
2013-05-23 00:16:00,46.2,43.4,30.01,North,1,0.0,4.0,90,0.00,,SCT110,0.00,VWS V14.01,2013-05-23 05:16:00,
2013-05-23 00:21:00,46.0,43.2,30.01,NE,49,0.0,4.0,90,0.00,,SCT110,0.00,VWS V14.01,2013-05-23 05:21:00,
2013-05-23 00:26:00,46.0,43.2,30.01,NE,39,0.0,4.0,90,0.00,,SCT110,0.00,VWS V14.01,2013-05-23 05:26:00,
2013-05-23 00:31:00,45.8,43.0,30.02,East,82,0.0,2.0,90,0.00,,SCT110,0.00,VWS V14.01,2013-05-23 05:31:00,
2013-05-23 00:36:00,45.8,43.0,30.02,WNW,297,1.0,4.0,90,0.00,,SCT110,0.00,VWS V14.01,2013-05-23 05:36:00,
2013-05-23 00:41:00,45.8,43.0,30.02,ENE,58,1.0,4.0,90,0.00,,SCT110,0.00,VWS V14.01,2013-05-23 05:41:00,
2013-05-23 00:46:00,45.8,43.0,30.03,NE,43,1.0,4.0,90,0.00,,SCT110,0.00,VWS V14.01,2013-05-23 05:46:00,
2013-05-23 00:51:00,45.7,42.7,30.03,NE,49,1.0,4.0,89,0.00,,SCT110,0.00,VWS V14.01,2013-05-23 05:51:00,
2013-05-23 00:56:00,45.7,42.7,30.03,NE,45,1.0,4.0,89,0.00,,SCT110,0.00,VWS V14.01,2013-05-23 05:56:00,
2013-05-23 01:01:00,45.7,42.7,30.03,NE,56,1.0,3.0,89,0.00,,SCT110,0.00,VWS V14.01,2013-05-23 06:01:00,
2013-05-23 01:06:00,45.7,42.7,30.03,NE,50,2.0,4.0,89,0.00,,SCT110,0.00,VWS V14.01,2013-05-23 06:06:00,
2013-05-23 01:11:00,45.6,42.5,30.04,NE,46,4.0,5.0,89,0.00,,SCT110,0.00,VWS V14.01,2013-05-23 06:11:00,
2013-05-23 01:16:00,45.5,42.5,30.04,NE,53,3.0,5.0,89,0.00,,SCT110,0.00,VWS V14.01,2013-05-23 06:16:00,
2013-05-23 01:21:00,45.5,42.5,30.04,NE,52,2.0,6.0,89,0.00,,SCT110,0.00,VWS V14.01,2013-05-23 06:21:00,
2013-05-23 01:26:00,45.4,42.3,30.05,NE,48,2.0,6.0,89,0.00,,SCT110,0.00,VWS V14.01,2013-05-23 06:26:00,
2013-05-23 01:31:00,45.3,42.3,30.05,NE,44,0.0,3.0,89,0.00,,SCT110,0.00,VWS V14.01,2013-05-23 06:31:00,
2013-05-23 01:36:00,45.2,42.2,30.05,NE,47,0.0,5.0,89,0.00,,SCT110,0.00,VWS V14.01,2013-05-23 06:36:00,
2013-05-23 01:41:00,45.1,42.1,30.05,East,83,2.0,5.0,89,0.00,,SCT110,0.00,VWS V14.01,2013-05-23 06:41:00,
2013-05-23 01:46:00,45.0,42.2,30.05,ENE,60,3.0,5.0,90,0.00,,SCT110,0.00,VWS V14.01,2013-05-23 06:46:00,
2013-05-23 01:51:00,45.0,42.2,30.06,NE,47,2.0,5.0,90,0.00,,SCT110,0.00,VWS V14.01,2013-05-23 06:51:00,
2013-05-23 01:56:00,45.0,42.2,30.06,NE,56,2.0,6.0,90,0.00,,SCT110,0.00,VWS V14.01,2013-05-23 06:56:00,
2013-05-23 02:01:00,44.9,42.2,30.06,NE,53,3.0,5.0,90,0.00,,SCT110,0.00,VWS V14.01,2013-05-23 07:01:00,
2013-05-23 02:06:00,44.9,42.2,30.06,NE,46,2.0,6.0,90,0.00,,SCT110,0.00,VWS V14.01,2013-05-23 07:06:00,
2013-05-23 02:11:00,44.9,41.9,30.06,NE,37,3.0,6.0,89,0.00,,SCT110,0.00,VWS V14.01,2013-05-23 07:11:00,
2013-05-23 02:16:00,45.0,42.0,30.06,NE,56,3.0,7.0,89,0.00,,SCT110,0.00,VWS V14.01,2013-05-23 07:16:00,
2013-05-23 02:21:00,44.9,41.6,30.07,NE,49,2.0,7.0,88,0.00,,SCT110,0.00,VWS V14.01,2013-05-23 07:21:00,
2013-05-23 02:26:00,45.1,41.5,30.07,NE,49,5.0,8.0,87,0.00,,SCT110,0.00,VWS V14.01,2013-05-23 07:26:00,
2013-05-23 02:31:00,45.3,41.1,30.07,NE,47,5.0,8.0,85,0.00,,SCT110,0.00,VWS V14.01,2013-05-23 07:31:00,
2013-05-23 02:36:00,45.4,40.9,30.07,NE,47,5.0,8.0,84,0.00,,SCT110,0.00,VWS V14.01,2013-05-23 07:36:00,
2013-05-23 02:41:00,45.6,40.1,30.07,ENE,58,10.0,12.0,81,0.00,,SCT110,0.00,VWS V14.01,2013-05-23 07:41:00,
2013-05-23 02:46:00,45.8,40.0,30.08,NE,50,4.0,12.0,80,0.00,,SCT110,0.00,VWS V14.01,2013-05-23 07:46:00,
2013-05-23 02:51:00,45.6,39.8,30.08,ENE,64,3.0,12.0,80,0.00,,SCT110,0.00,VWS V14.01,2013-05-23 07:51:00,
2013-05-23 02:56:00,45.2,40.0,30.08,NE,53,1.0,12.0,82,0.00,,SCT110,0.00,VWS V14.01,2013-05-23 07:56:00,
2013-05-23 03:01:00,45.0,40.2,30.08,ENE,70,5.0,5.0,83,0.00,,SCT110,0.00,VWS V14.01,2013-05-23 08:01:00,
2013-05-23 03:06:00,44.9,39.8,30.08,ENE,58,6.0,8.0,82,0.00,,SCT110,0.00,VWS V14.01,2013-05-23 08:06:00,
2013-05-23 03:11:00,45.0,39.5,30.09,NE,49,7.0,8.0,81,0.00,,SCT110,0.00,VWS V14.01,2013-05-23 08:11:00,
2013-05-23 03:16:00,45.0,39.5,30.09,NE,53,3.0,8.0,81,0.00,,SCT110,0.00,VWS V14.01,2013-05-23 08:16:00,
2013-05-23 03:21:00,44.9,39.1,30.09,NE,49,8.0,9.0,80,0.00,,SCT110,0.00,VWS V14.01,2013-05-23 08:21:00,
2013-05-23 03:26:00,44.9,38.8,30.09,NE,44,6.0,10.0,79,0.00,,SCT110,0.00,VWS V14.01,2013-05-23 08:26:00,
2013-05-23 03:31:00,44.9,38.8,30.10,NE,39,5.0,8.0,79,0.00,,SCT110,0.00,VWS V14.01,2013-05-23 08:31:00,
2013-05-23 03:36:00,44.7,38.6,30.10,NE,53,5.0,8.0,79,0.00,,SCT110,0.00,VWS V14.01,2013-05-23 08:36:00,
2013-05-23 03:41:00,44.6,38.8,30.10,ENE,65,5.0,8.0,80,0.00,,SCT110,0.00,VWS V14.01,2013-05-23 08:41:00,
2013-05-23 03:46:00,44.4,38.6,30.10,ENE,68,6.0,8.0,80,0.00,,SCT110,0.00,VWS V14.01,2013-05-23 08:46:00,
2013-05-23 03:51:00,44.3,38.5,30.10,ENE,70,5.0,10.0,80,0.00,,SCT110,0.00,VWS V14.01,2013-05-23 08:51:00,
2013-05-23 03:56:00,44.3,38.5,30.11,NE,44,6.0,11.0,80,0.00,,SCT110,0.00,VWS V14.01,2013-05-23 08:56:00,
2013-05-23 04:01:00,44.3,38.2,30.11,NE,48,3.0,9.0,79,0.00,,SCT110,0.00,VWS V14.01,2013-05-23 09:01:00,
2013-05-23 04:06:00,44.0,38.2,30.11,NE,47,2.0,9.0,80,0.00,,SCT110,0.00,VWS V14.01,2013-05-23 09:06:00,
2013-05-23 04:11:00,43.6,38.5,30.12,NE,53,2.0,9.0,82,0.00,,SCT110,0.00,VWS V14.01,2013-05-23 09:11:00,
2013-05-23 04:16:00,43.3,38.5,30.12,NE,43,7.0,9.0,83,0.00,,SCT110,0.00,VWS V14.01,2013-05-23 09:16:00,
2013-05-23 04:21:00,43.2,38.4,30.12,NE,47,7.0,9.0,83,0.00,,SCT110,0.00,VWS V14.01,2013-05-23 09:21:00,
2013-05-23 04:26:00,43.1,38.3,30.13,NE,47,4.0,9.0,83,0.00,,SCT110,0.00,VWS V14.01,2013-05-23 09:26:00,
2013-05-23 04:31:00,42.9,38.1,30.13,NE,53,3.0,6.0,83,0.00,,SCT110,0.00,VWS V14.01,2013-05-23 09:31:00,
2013-05-23 04:36:00,43.0,38.2,30.13,ENE,58,6.0,9.0,83,0.00,,SCT110,0.00,VWS V14.01,2013-05-23 09:36:00,
2013-05-23 04:41:00,43.0,37.9,30.14,ENE,58,5.0,14.0,82,0.00,,SCT110,0.00,VWS V14.01,2013-05-23 09:41:00,
2013-05-23 04:46:00,42.7,37.9,30.14,NE,47,3.0,14.0,83,0.00,,SCT110,0.00,VWS V14.01,2013-05-23 09:46:00,
2013-05-23 04:51:00,42.4,37.9,30.14,NE,56,3.0,14.0,84,0.00,,SCT110,0.00,VWS V14.01,2013-05-23 09:51:00,
2013-05-23 04:56:00,42.2,37.7,30.14,NE,52,3.0,14.0,84,0.00,,SCT110,0.00,VWS V14.01,2013-05-23 09:56:00,
2013-05-23 05:01:00,42.0,37.5,30.14,NE,47,3.0,5.0,84,0.00,,SCT110,0.00,VWS V14.01,2013-05-23 10:01:00,
2013-05-23 05:06:00,41.9,37.7,30.15,NE,43,5.0,6.0,85,0.00,,SCT110,0.00,VWS V14.01,2013-05-23 10:06:00,
2013-05-23 05:11:00,41.7,37.5,30.15,NE,53,3.0,6.0,85,0.00,,SCT110,0.00,VWS V14.01,2013-05-23 10:11:00,
2013-05-23 05:16:00,41.6,37.4,30.15,NE,43,2.0,7.0,85,0.00,,SCT110,0.00,VWS V14.01,2013-05-23 10:16:00,
2013-05-23 05:21:00,41.5,37.3,30.16,NE,46,5.0,9.0,85,0.00,,SCT110,0.00,VWS V14.01,2013-05-23 10:21:00,
2013-05-23 05:26:00,41.4,36.9,30.16,NE,44,4.0,9.0,84,0.00,,SCT110,0.00,VWS V14.01,2013-05-23 10:26:00,
2013-05-23 05:31:00,41.4,36.9,30.16,NE,44,4.0,8.0,84,0.00,,SCT110,0.00,VWS V14.01,2013-05-23 10:31:00,
2013-05-23 05:36:00,41.4,36.6,30.16,NE,49,3.0,8.0,83,0.00,,SCT110,0.00,VWS V14.01,2013-05-23 10:36:00,
2013-05-23 05:41:00,41.3,36.5,30.16,ENE,60,4.0,8.0,83,0.00,,SCT110,0.00,VWS V14.01,2013-05-23 10:41:00,
2013-05-23 05:46:00,41.4,36.6,30.17,NE,50,5.0,8.0,83,0.00,,SCT110,0.00,VWS V14.01,2013-05-23 10:46:00,
2013-05-23 05:51:00,41.5,36.7,30.17,NE,56,2.0,8.0,83,0.00,,SCT110,0.00,VWS V14.01,2013-05-23 10:51:00,
2013-05-23 05:56:00,41.5,36.4,30.17,NE,47,4.0,8.0,82,0.00,,SCT110,0.00,VWS V14.01,2013-05-23 10:56:00,
2013-05-23 06:01:00,41.6,36.5,30.17,NE,53,4.0,6.0,82,0.00,,SCT110,0.00,VWS V14.01,2013-05-23 11:01:00,
2013-05-23 06:06:00,41.7,36.6,30.17,NE,52,2.0,6.0,82,0.00,,SCT110,0.00,VWS V14.01,2013-05-23 11:06:00,
2013-05-23 06:11:00,41.8,36.4,30.18,NE,50,4.0,7.0,81,0.00,,SCT110,0.00,VWS V14.01,2013-05-23 11:11:00,
2013-05-23 06:16:00,41.9,36.2,30.18,NE,53,3.0,9.0,80,0.00,,SCT110,0.00,VWS V14.01,2013-05-23 11:16:00,
2013-05-23 06:21:00,42.1,36.4,30.18,NE,43,3.0,9.0,80,0.00,,SCT110,0.00,VWS V14.01,2013-05-23 11:21:00,
2013-05-23 06:26:00,42.2,36.5,30.19,NE,49,3.0,9.0,80,0.00,,SCT110,0.00,VWS V14.01,2013-05-23 11:26:00,
2013-05-23 06:31:00,42.3,36.3,30.19,NE,52,2.0,7.0,79,0.00,,SCT110,0.00,VWS V14.01,2013-05-23 11:31:00,
2013-05-23 06:36:00,42.4,36.4,30.19,NE,52,4.0,7.0,79,0.00,,SCT110,0.00,VWS V14.01,2013-05-23 11:36:00,
2013-05-23 06:41:00,42.4,36.4,30.19,NE,56,5.0,7.0,79,0.00,,SCT110,0.00,VWS V14.01,2013-05-23 11:41:00,
2013-05-23 06:46:00,42.5,36.1,30.20,NE,36,4.0,7.0,78,0.00,,CLR,0.00,VWS V14.01,2013-05-23 11:46:00,
2013-05-23 06:51:00,42.5,36.1,30.20,NE,47,4.0,8.0,78,0.00,,CLR,0.00,VWS V14.01,2013-05-23 11:51:00,
2013-05-23 06:56:00,42.5,36.1,30.20,NE,43,6.0,8.0,78,0.00,,CLR,0.00,VWS V14.01,2013-05-23 11:56:00,
2013-05-23 07:01:00,42.4,36.0,30.20,NE,47,4.0,7.0,78,0.00,,CLR,0.00,VWS V14.01,2013-05-23 12:01:00,
2013-05-23 07:06:00,42.4,36.0,30.20,ENE,64,6.0,9.0,78,0.00,,CLR,0.00,VWS V14.01,2013-05-23 12:06:00,
2013-05-23 07:11:00,42.4,36.0,30.20,NE,49,3.0,10.0,78,0.00,,CLR,0.00,VWS V14.01,2013-05-23 12:11:00,
2013-05-23 07:16:00,42.6,35.9,30.21,ENE,75,6.0,10.0,77,0.00,,CLR,0.00,VWS V14.01,2013-05-23 12:16:00,
2013-05-23 07:21:00,42.8,36.1,30.21,NE,56,3.0,14.0,77,0.00,,CLR,0.00,VWS V14.01,2013-05-23 12:21:00,
2013-05-23 07:26:00,42.9,36.2,30.21,NE,50,8.0,14.0,77,0.00,,CLR,0.00,VWS V14.01,2013-05-23 12:26:00,
2013-05-23 07:31:00,43.1,36.4,30.22,ENE,60,7.0,8.0,77,0.00,,CLR,0.00,VWS V14.01,2013-05-23 12:31:00,
2013-05-23 07:36:00,43.3,35.9,30.22,NE,46,7.0,10.0,75,0.00,,CLR,0.00,VWS V14.01,2013-05-23 12:36:00,
2013-05-23 07:41:00,43.5,36.5,30.22,NE,52,5.0,13.0,76,0.00,,CLR,0.00,VWS V14.01,2013-05-23 12:41:00,
2013-05-23 07:46:00,43.8,36.7,30.22,NE,43,5.0,13.0,76,0.00,,CLR,0.00,VWS V14.01,2013-05-23 12:46:00,
2013-05-23 07:51:00,43.9,36.2,30.22,NE,53,9.0,13.0,74,0.00,,CLR,0.00,VWS V14.01,2013-05-23 12:51:00,
2013-05-23 07:56:00,44.0,35.9,30.23,NE,56,9.0,13.0,73,0.00,,CLR,0.00,VWS V14.01,2013-05-23 12:56:00,
2013-05-23 08:01:00,44.2,36.1,30.23,NE,49,7.0,11.0,73,0.00,,CLR,0.00,VWS V14.01,2013-05-23 13:01:00,
2013-05-23 08:06:00,44.3,36.2,30.23,NE,48,4.0,11.0,73,0.00,,CLR,0.00,VWS V14.01,2013-05-23 13:06:00,
2013-05-23 08:11:00,44.5,36.0,30.23,NE,54,3.0,11.0,72,0.00,,CLR,0.00,VWS V14.01,2013-05-23 13:11:00,
2013-05-23 08:16:00,44.9,36.4,30.23,NE,56,3.0,15.0,72,0.00,,CLR,0.00,VWS V14.01,2013-05-23 13:16:00,
2013-05-23 08:21:00,45.1,36.3,30.24,ENE,57,4.0,15.0,71,0.00,,CLR,0.00,VWS V14.01,2013-05-23 13:21:00,
2013-05-23 08:26:00,45.3,35.7,30.23,NE,50,5.0,15.0,69,0.00,,CLR,0.00,VWS V14.01,2013-05-23 13:26:00,
2013-05-23 08:31:00,45.5,35.9,30.24,NE,47,8.0,12.0,69,0.00,,CLR,0.00,VWS V14.01,2013-05-23 13:31:00,
2013-05-23 08:36:00,45.7,36.5,30.24,NE,53,6.0,12.0,70,0.00,,CLR,0.00,VWS V14.01,2013-05-23 13:36:00,
2013-05-23 08:41:00,45.7,36.5,30.24,NNE,30,2.0,12.0,70,0.00,,CLR,0.00,VWS V14.01,2013-05-23 13:41:00,
2013-05-23 08:46:00,46.0,36.0,30.24,ENE,65,5.0,12.0,68,0.00,,CLR,0.00,VWS V14.01,2013-05-23 13:46:00,
2013-05-23 08:51:00,46.1,36.1,30.24,NE,44,5.0,14.0,68,0.00,,CLR,0.00,VWS V14.01,2013-05-23 13:51:00,
2013-05-23 08:56:00,46.4,36.0,30.25,NE,56,4.0,14.0,67,0.00,,CLR,0.00,VWS V14.01,2013-05-23 13:56:00,
2013-05-23 09:01:00,46.7,36.3,30.25,ENE,65,3.0,11.0,67,0.00,,CLR,0.00,VWS V14.01,2013-05-23 14:01:00,
2013-05-23 09:06:00,46.8,36.0,30.25,NE,44,3.0,11.0,66,0.00,,CLR,0.00,VWS V14.01,2013-05-23 14:06:00,
2013-05-23 09:11:00,46.9,36.2,30.25,NE,56,2.0,11.0,66,0.00,,CLR,0.00,VWS V14.01,2013-05-23 14:11:00,
2013-05-23 09:16:00,47.2,36.0,30.25,NE,37,6.0,11.0,65,0.00,,CLR,0.00,VWS V14.01,2013-05-23 14:16:00,
2013-05-23 09:21:00,47.6,36.8,30.25,NE,53,5.0,11.0,66,0.00,,CLR,0.00,VWS V14.01,2013-05-23 14:21:00,
2013-05-23 09:26:00,47.6,35.2,30.25,NE,49,7.0,15.0,62,0.00,,CLR,0.00,VWS V14.01,2013-05-23 14:26:00,
2013-05-23 09:31:00,47.6,35.2,30.25,NE,44,6.0,10.0,62,0.00,,CLR,0.00,VWS V14.01,2013-05-23 14:31:00,
2013-05-23 09:36:00,48.1,35.7,30.25,NE,44,3.0,10.0,62,0.00,,CLR,0.00,VWS V14.01,2013-05-23 14:36:00,
2013-05-23 09:40:00,48.5,35.7,30.25,NNW,345,4.0,10.0,61,0.00,,CLR,0.00,VWS V14.01,2013-05-23 14:40:00,
2013-05-23 09:45:00,48.4,34.8,30.25,North,5,5.0,11.0,59,0.00,,CLR,0.00,VWS V14.01,2013-05-23 14:45:00,
2013-05-23 09:50:00,48.6,35.8,30.26,ENE,61,6.0,11.0,61,0.00,,CLR,0.00,VWS V14.01,2013-05-23 14:50:00,
2013-05-23 09:55:00,48.8,35.1,30.25,NE,39,7.0,11.0,59,0.00,,CLR,0.00,VWS V14.01,2013-05-23 14:55:00,
2013-05-23 10:00:00,48.9,36.1,30.25,NE,41,3.0,9.0,61,0.00,,CLR,0.00,VWS V14.01,2013-05-23 15:00:00,
2013-05-23 10:05:00,48.8,34.3,30.26,NE,53,9.0,12.0,57,0.00,,CLR,0.00,VWS V14.01,2013-05-23 15:05:00,
2013-05-23 10:10:00,48.9,35.6,30.26,ENE,61,6.0,12.0,60,0.00,,CLR,0.00,VWS V14.01,2013-05-23 15:10:00,
2013-05-23 10:15:00,49.3,36.0,30.26,East,84,2.0,12.0,60,0.00,,CLR,0.00,VWS V14.01,2013-05-23 15:15:00,
2013-05-23 10:20:00,50.1,37.2,30.25,SE,128,2.0,12.0,61,0.00,,CLR,0.00,VWS V14.01,2013-05-23 15:20:00,
2013-05-23 10:25:00,50.3,35.7,30.26,NE,38,4.0,12.0,57,0.00,,CLR,0.00,VWS V14.01,2013-05-23 15:25:00,
2013-05-23 10:30:00,50.1,34.6,30.26,NE,39,5.0,9.0,55,0.00,,CLR,0.00,VWS V14.01,2013-05-23 15:30:00,
2013-05-23 10:35:00,50.4,35.3,30.26,ENE,58,6.0,9.0,56,0.00,,CLR,0.00,VWS V14.01,2013-05-23 15:35:00,
2013-05-23 10:40:00,50.4,34.4,30.26,ENE,57,4.0,12.0,54,0.00,,CLR,0.00,VWS V14.01,2013-05-23 15:40:00,
2013-05-23 10:45:00,50.7,36.0,30.26,NNE,26,1.0,12.0,57,0.00,,CLR,0.00,VWS V14.01,2013-05-23 15:45:00,
2013-05-23 10:50:00,50.6,34.6,30.26,NE,55,8.0,12.0,54,0.00,,CLR,0.00,VWS V14.01,2013-05-23 15:50:00,
2013-05-23 10:55:00,50.6,34.1,30.26,NE,38,4.0,12.0,53,0.00,,CLR,0.00,VWS V14.01,2013-05-23 15:55:00,
2013-05-23 11:00:00,50.7,34.2,30.26,ENE,58,6.0,10.0,53,0.00,,CLR,0.00,VWS V14.01,2013-05-23 16:00:00,
2013-05-23 11:05:00,50.7,34.2,30.26,NE,50,4.0,10.0,53,0.00,,CLR,0.00,VWS V14.01,2013-05-23 16:05:00,
2013-05-23 11:10:00,51.0,35.4,30.26,NE,46,4.0,10.0,55,0.00,,CLR,0.00,VWS V14.01,2013-05-23 16:10:00,
2013-05-23 11:15:00,51.4,35.3,30.26,NE,39,5.0,10.0,54,0.00,,CLR,0.00,VWS V14.01,2013-05-23 16:15:00,
2013-05-23 11:20:00,51.6,36.0,30.26,ENE,72,6.0,10.0,55,0.00,,CLR,0.00,VWS V14.01,2013-05-23 16:20:00,
2013-05-23 11:25:00,51.7,35.6,30.26,NE,51,5.0,12.0,54,0.00,,CLR,0.00,VWS V14.01,2013-05-23 16:25:00,
2013-05-23 11:30:00,52.0,34.9,30.26,NE,41,3.0,9.0,52,0.00,,CLR,0.00,VWS V14.01,2013-05-23 16:30:00,
2013-05-23 11:35:00,52.2,34.1,30.26,NE,50,4.0,11.0,50,0.00,,CLR,0.00,VWS V14.01,2013-05-23 16:35:00,
2013-05-23 11:40:00,52.6,36.0,30.26,NE,39,4.0,11.0,53,0.00,,CLR,0.00,VWS V14.01,2013-05-23 16:40:00,
2013-05-23 11:45:00,52.7,35.1,30.26,NE,41,4.0,11.0,51,0.00,,CLR,0.00,VWS V14.01,2013-05-23 16:45:00,
2013-05-23 11:50:00,52.7,34.1,30.26,NE,44,9.0,12.0,49,0.00,,CLR,0.00,VWS V14.01,2013-05-23 16:50:00,
2013-05-23 11:55:00,52.9,33.2,30.27,NE,36,6.0,12.0,47,0.00,,CLR,0.00,VWS V14.01,2013-05-23 16:55:00,
2013-05-23 12:00:00,53.2,35.1,30.26,NE,53,2.0,9.0,50,0.00,,CLR,0.00,VWS V14.01,2013-05-23 17:00:00,
2013-05-23 12:05:00,53.5,33.8,30.27,NE,44,7.0,12.0,47,0.00,,CLR,0.00,VWS V14.01,2013-05-23 17:05:00,
2013-05-23 12:10:00,53.6,33.3,30.26,ENE,58,4.0,12.0,46,0.00,,CLR,0.00,VWS V14.01,2013-05-23 17:10:00,
2013-05-23 12:15:00,54.0,33.7,30.27,ENE,67,5.0,12.0,46,0.00,,CLR,0.00,VWS V14.01,2013-05-23 17:15:00,
2013-05-23 12:20:00,54.6,34.2,30.26,NE,47,5.0,12.0,46,0.00,,CLR,0.00,VWS V14.01,2013-05-23 17:20:00,
2013-05-23 12:25:00,55.0,37.2,30.26,NW,312,4.0,12.0,51,0.00,,CLR,0.00,VWS V14.01,2013-05-23 17:25:00,
2013-05-23 12:30:00,56.1,38.2,30.26,NE,56,7.0,10.0,51,0.00,,CLR,0.00,VWS V14.01,2013-05-23 17:30:00,
2013-05-23 12:35:00,55.5,36.2,30.27,NE,36,4.0,10.0,48,0.00,,CLR,0.00,VWS V14.01,2013-05-23 17:35:00,
2013-05-23 12:40:00,55.9,36.0,30.26,NE,56,4.0,11.0,47,0.00,,CLR,0.00,VWS V14.01,2013-05-23 17:40:00,
2013-05-23 12:45:00,56.4,39.0,30.26,NE,41,4.0,11.0,52,0.00,,CLR,0.00,VWS V14.01,2013-05-23 17:45:00,
2013-05-23 12:50:00,56.6,35.5,30.26,NE,47,8.0,11.0,45,0.00,,CLR,0.00,VWS V14.01,2013-05-23 17:50:00,
2013-05-23 12:55:00,56.4,37.0,30.26,NE,53,2.0,11.0,48,0.00,,CLR,0.00,VWS V14.01,2013-05-23 17:55:00,
2013-05-23 13:00:00,56.3,35.8,30.26,NE,38,3.0,8.0,46,0.00,,CLR,0.00,VWS V14.01,2013-05-23 18:00:00,
2013-05-23 13:05:00,56.3,37.4,30.26,NNE,13,6.0,12.0,49,0.00,,CLR,0.00,VWS V14.01,2013-05-23 18:05:00,
2013-05-23 13:10:00,56.9,38.0,30.26,NNE,27,3.0,12.0,49,0.00,,CLR,0.00,VWS V14.01,2013-05-23 18:10:00,
2013-05-23 13:15:00,57.7,37.1,30.26,ENE,67,8.0,14.0,46,0.00,,CLR,0.00,VWS V14.01,2013-05-23 18:15:00,
2013-05-23 13:20:00,57.3,36.2,30.26,ENE,58,6.0,14.0,45,0.00,,CLR,0.00,VWS V14.01,2013-05-23 18:20:00,
2013-05-23 13:25:00,57.3,33.8,30.26,ENE,61,4.0,14.0,41,0.00,,CLR,0.00,VWS V14.01,2013-05-23 18:25:00,
2013-05-23 13:30:00,57.4,35.7,30.26,NNE,30,2.0,9.0,44,0.00,,CLR,0.00,VWS V14.01,2013-05-23 18:30:00,
2013-05-23 13:35:00,58.1,34.5,30.26,NNW,328,9.0,9.0,41,0.00,,CLR,0.00,VWS V14.01,2013-05-23 18:35:00,
2013-05-23 13:40:00,58.6,35.6,30.26,NE,49,3.0,9.0,42,0.00,,CLR,0.00,VWS V14.01,2013-05-23 18:40:00,
2013-05-23 13:45:00,58.6,35.6,30.27,NE,53,6.0,9.0,42,0.00,,CLR,0.00,VWS V14.01,2013-05-23 18:45:00,
2013-05-23 13:50:00,58.4,34.8,30.26,NE,56,6.0,10.0,41,0.00,,CLR,0.00,VWS V14.01,2013-05-23 18:50:00,
2013-05-23 13:55:00,58.6,33.7,30.26,NE,49,5.0,10.0,39,0.00,,CLR,0.00,VWS V14.01,2013-05-23 18:55:00,
2013-05-23 14:00:00,58.7,34.5,30.26,NNW,337,6.0,6.0,40,0.00,,CLR,0.00,VWS V14.01,2013-05-23 19:00:00,
2013-05-23 14:05:00,59.1,32.9,30.26,NE,53,6.0,11.0,37,0.00,,CLR,0.00,VWS V14.01,2013-05-23 19:05:00,
2013-05-23 14:10:00,59.1,33.5,30.26,NE,47,3.0,11.0,38,0.00,,CLR,0.00,VWS V14.01,2013-05-23 19:10:00,
2013-05-23 14:15:00,59.4,35.1,30.26,North,6,2.0,11.0,40,0.00,,CLR,0.00,VWS V14.01,2013-05-23 19:15:00,
2013-05-23 14:20:00,60.1,35.7,30.26,NE,39,6.0,11.0,40,0.00,,CLR,0.00,VWS V14.01,2013-05-23 19:20:00,
2013-05-23 14:25:00,59.7,34.1,30.26,NE,46,4.0,11.0,38,0.00,,CLR,0.00,VWS V14.01,2013-05-23 19:25:00,
2013-05-23 14:30:00,60.0,33.7,30.26,NE,55,6.0,8.0,37,0.00,,CLR,0.00,VWS V14.01,2013-05-23 19:30:00,
2013-05-23 14:35:00,60.0,33.7,30.26,NE,53,5.0,11.0,37,0.00,,CLR,0.00,VWS V14.01,2013-05-23 19:35:00,
2013-05-23 14:40:00,59.9,34.2,30.26,NNW,342,1.0,11.0,38,0.00,,CLR,0.00,VWS V14.01,2013-05-23 19:40:00,
2013-05-23 14:45:00,60.1,34.4,30.26,North,6,1.0,11.0,38,0.00,,CLR,0.00,VWS V14.01,2013-05-23 19:45:00,
2013-05-23 14:50:00,60.5,32.0,30.26,NE,43,11.0,12.0,34,0.00,,CLR,0.00,VWS V14.01,2013-05-23 19:50:00,
2013-05-23 14:55:00,60.1,30.9,30.26,NE,53,6.0,15.0,33,0.00,,CLR,0.00,VWS V14.01,2013-05-23 19:55:00,
2013-05-23 15:00:00,60.3,33.3,30.26,NE,53,6.0,6.0,36,0.00,,CLR,0.00,VWS V14.01,2013-05-23 20:00:00,
2013-05-23 15:05:00,60.4,30.4,30.26,ENE,68,9.0,17.0,32,0.00,,CLR,0.00,VWS V14.01,2013-05-23 20:05:00,
2013-05-23 15:10:00,60.3,31.8,30.26,NE,55,9.0,17.0,34,0.00,,CLR,0.00,VWS V14.01,2013-05-23 20:10:00,
2013-05-23 15:16:00,59.9,30.0,30.26,NE,53,7.0,20.0,32,0.00,,CLR,0.00,VWS V14.01,2013-05-23 20:16:00,
2013-05-23 15:21:00,60.1,30.2,30.26,ENE,71,8.0,21.0,32,0.00,,CLR,0.00,VWS V14.01,2013-05-23 20:21:00,
2013-05-23 15:26:00,60.0,31.6,30.26,NE,44,8.0,21.0,34,0.00,,CLR,0.00,VWS V14.01,2013-05-23 20:26:00,
2013-05-23 15:31:00,60.3,32.6,30.26,East,82,12.0,15.0,35,0.00,,CLR,0.00,VWS V14.01,2013-05-23 20:31:00,
2013-05-23 15:36:00,60.4,33.3,30.26,NE,47,4.0,17.0,36,0.00,,CLR,0.00,VWS V14.01,2013-05-23 20:36:00,
2013-05-23 15:41:00,60.7,29.9,30.26,ENE,61,8.0,17.0,31,0.00,,CLR,0.00,VWS V14.01,2013-05-23 20:41:00,
2013-05-23 15:46:00,60.8,29.2,30.26,ENE,74,16.0,17.0,30,0.00,,CLR,0.00,VWS V14.01,2013-05-23 20:46:00,
2013-05-23 15:51:00,60.4,31.2,30.26,ENE,64,14.0,21.0,33,0.00,,CLR,0.00,VWS V14.01,2013-05-23 20:51:00,
2013-05-23 15:55:00,60.5,32.0,30.26,NE,56,8.0,22.0,34,0.00,,CLR,0.00,VWS V14.01,2013-05-23 20:55:00,
2013-05-23 16:00:00,60.5,30.5,30.26,East,97,8.0,10.0,32,0.00,,CLR,0.00,VWS V14.01,2013-05-23 21:00:00,
2013-05-23 16:05:00,61.1,31.8,30.26,NE,44,6.0,10.0,33,0.00,,CLR,0.00,VWS V14.01,2013-05-23 21:05:00,
2013-05-23 16:10:00,61.0,30.2,30.26,ENE,65,11.0,20.0,31,0.00,,CLR,0.00,VWS V14.01,2013-05-23 21:10:00,
2013-05-23 16:15:00,60.4,29.6,30.26,East,90,9.0,20.0,31,0.00,,CLR,0.00,VWS V14.01,2013-05-23 21:15:00,
2013-05-23 16:20:00,60.8,33.0,30.26,NE,40,6.0,20.0,35,0.00,,CLR,0.00,VWS V14.01,2013-05-23 21:20:00,
2013-05-23 16:25:00,61.2,31.1,30.26,East,79,4.0,20.0,32,0.00,,CLR,0.00,VWS V14.01,2013-05-23 21:25:00,
2013-05-23 16:30:00,61.3,29.6,30.26,ENE,75,13.0,17.0,30,0.00,,CLR,0.00,VWS V14.01,2013-05-23 21:30:00,
2013-05-23 16:35:00,61.1,30.3,30.26,NE,49,9.0,17.0,31,0.00,,SCT100,0.00,VWS V14.01,2013-05-23 21:35:00,
2013-05-23 16:40:00,61.1,31.8,30.26,East,79,5.0,17.0,33,0.00,,SCT100,0.00,VWS V14.01,2013-05-23 21:40:00,
2013-05-23 16:45:00,61.3,30.4,30.26,ENE,65,6.0,17.0,31,0.00,,SCT100,0.00,VWS V14.01,2013-05-23 21:45:00,
2013-05-23 16:50:00,61.2,29.5,30.26,North,11,2.0,17.0,30,0.00,,CLR,0.00,VWS V14.01,2013-05-23 21:50:00,
2013-05-23 16:55:00,61.3,32.0,30.26,NE,41,7.0,17.0,33,0.00,,CLR,0.00,VWS V14.01,2013-05-23 21:55:00,
2013-05-23 17:00:00,61.4,32.8,30.26,NE,53,5.0,10.0,34,0.00,,CLR,0.00,VWS V14.01,2013-05-23 22:00:00,
2013-05-23 17:05:00,61.3,33.4,30.26,NE,53,3.0,10.0,35,0.00,,CLR,0.00,VWS V14.01,2013-05-23 22:05:00,
2013-05-23 17:10:00,61.3,30.4,30.26,NE,44,5.0,11.0,31,0.00,,CLR,0.00,VWS V14.01,2013-05-23 22:10:00,
2013-05-23 17:15:00,61.3,31.2,30.26,ESE,107,9.0,13.0,32,0.00,,CLR,0.00,VWS V14.01,2013-05-23 22:15:00,
2013-05-23 17:20:00,61.3,31.2,30.26,ENE,77,4.0,13.0,32,0.00,,CLR,0.00,VWS V14.01,2013-05-23 22:20:00,
2013-05-23 17:25:00,61.7,32.3,30.26,ENE,58,5.0,13.0,33,0.00,,CLR,0.00,VWS V14.01,2013-05-23 22:25:00,
2013-05-23 17:30:00,61.8,31.6,30.26,ENE,65,6.0,8.0,32,0.00,,CLR,0.00,VWS V14.01,2013-05-23 22:30:00,
2013-05-23 17:35:00,61.8,30.1,30.26,NE,53,4.0,10.0,30,0.00,,CLR,0.00,VWS V14.01,2013-05-23 22:35:00,
2013-05-23 17:40:00,61.6,31.5,30.26,ENE,58,5.0,10.0,32,0.00,,CLR,0.00,VWS V14.01,2013-05-23 22:40:00,
2013-05-23 17:45:00,61.5,29.8,30.26,East,98,11.0,14.0,30,0.00,,CLR,0.00,VWS V14.01,2013-05-23 22:45:00,
2013-05-23 17:50:00,61.4,31.3,30.26,NE,53,4.0,14.0,32,0.00,,CLR,0.00,VWS V14.01,2013-05-23 22:50:00,
2013-05-23 17:55:00,61.4,29.7,30.26,ENE,77,5.0,14.0,30,0.00,,CLR,0.00,VWS V14.01,2013-05-23 22:55:00,
2013-05-23 18:00:00,61.4,32.8,30.26,NE,56,7.0,12.0,34,0.00,,CLR,0.00,VWS V14.01,2013-05-23 23:00:00,
2013-05-23 18:05:00,61.4,30.5,30.26,NE,49,5.0,14.0,31,0.00,,CLR,0.00,VWS V14.01,2013-05-23 23:05:00,
2013-05-23 18:10:00,61.3,29.6,30.26,NE,49,6.0,14.0,30,0.00,,CLR,0.00,VWS V14.01,2013-05-23 23:10:00,
2013-05-23 18:15:00,61.2,30.4,30.26,NE,56,4.0,14.0,31,0.00,,CLR,0.00,VWS V14.01,2013-05-23 23:15:00,
2013-05-23 18:20:00,61.1,29.5,30.26,ENE,59,9.0,15.0,30,0.00,,CLR,0.00,VWS V14.01,2013-05-23 23:20:00,
2013-05-23 18:25:00,61.1,30.3,30.26,ENE,75,7.0,15.0,31,0.00,,CLR,0.00,VWS V14.01,2013-05-23 23:25:00,
2013-05-23 18:30:00,61.1,29.5,30.27,ENE,70,15.0,15.0,30,0.00,,CLR,0.00,VWS V14.01,2013-05-23 23:30:00,
2013-05-23 18:35:00,60.9,28.5,30.27,ENE,57,6.0,15.0,29,0.00,,CLR,0.00,VWS V14.01,2013-05-23 23:35:00,
2013-05-23 18:40:00,60.8,29.2,30.27,ENE,64,5.0,15.0,30,0.00,,CLR,0.00,VWS V14.01,2013-05-23 23:40:00,
2013-05-23 18:45:00,60.9,30.9,30.27,ENE,71,4.0,15.0,32,0.00,,CLR,0.00,VWS V14.01,2013-05-23 23:45:00,
2013-05-23 18:50:00,60.8,30.0,30.27,East,101,6.0,15.0,31,0.00,,CLR,0.00,VWS V14.01,2013-05-23 23:50:00,
2013-05-23 18:55:00,60.8,29.2,30.27,ENE,62,8.0,15.0,30,0.00,,CLR,0.00,VWS V14.01,2013-05-23 23:55:00,
2013-05-23 19:00:00,60.7,29.9,30.27,ENE,68,4.0,8.0,31,0.00,,CLR,0.00,VWS V14.01,2013-05-24 00:00:00,
2013-05-23 19:05:00,60.6,29.8,30.27,ENE,70,6.0,9.0,31,0.00,,CLR,0.00,VWS V14.01,2013-05-24 00:05:00,
2013-05-23 19:10:00,60.5,28.9,30.27,ENE,73,6.0,9.0,30,0.00,,CLR,0.00,VWS V14.01,2013-05-24 00:10:00,
2013-05-23 19:15:00,60.4,31.2,30.27,ENE,61,4.0,9.0,33,0.00,,CLR,0.00,VWS V14.01,2013-05-24 00:15:00,
2013-05-23 19:20:00,60.4,29.6,30.27,ESE,103,4.0,9.0,31,0.00,,CLR,0.00,VWS V14.01,2013-05-24 00:20:00,
2013-05-23 19:25:00,60.4,29.6,30.27,ENE,64,5.0,12.0,31,0.00,,CLR,0.00,VWS V14.01,2013-05-24 00:25:00,
2013-05-23 19:30:00,60.2,29.5,30.27,ENE,59,5.0,9.0,31,0.00,,CLR,0.00,VWS V14.01,2013-05-24 00:30:00,
2013-05-23 19:35:00,59.9,30.0,30.27,ENE,72,4.0,9.0,32,0.00,,CLR,0.00,VWS V14.01,2013-05-24 00:35:00,
2013-05-23 19:40:00,59.9,30.0,30.27,NE,50,4.0,9.0,32,0.00,,CLR,0.00,VWS V14.01,2013-05-24 00:40:00,
2013-05-23 19:45:00,59.7,29.8,30.27,NE,49,6.0,9.0,32,0.00,,CLR,0.00,VWS V14.01,2013-05-24 00:45:00,
2013-05-23 19:50:00,59.4,28.8,30.28,ENE,71,6.0,9.0,31,0.00,,CLR,0.00,VWS V14.01,2013-05-24 00:50:00,
2013-05-23 19:55:00,59.0,27.6,30.27,ENE,74,5.0,10.0,30,0.00,,CLR,0.00,VWS V14.01,2013-05-24 00:55:00,
2013-05-23 20:00:00,58.8,27.5,30.27,ENE,65,5.0,8.0,30,0.00,,CLR,0.00,VWS V14.01,2013-05-24 01:00:00,
2013-05-23 20:05:00,58.4,27.1,30.27,ENE,70,7.0,8.0,30,0.00,,CLR,0.00,VWS V14.01,2013-05-24 01:05:00,
2013-05-23 20:10:00,58.2,26.9,30.27,East,79,7.0,10.0,30,0.00,,CLR,0.00,VWS V14.01,2013-05-24 01:10:00,
2013-05-23 20:15:00,57.9,27.5,30.27,ENE,72,6.0,10.0,31,0.00,,CLR,0.00,VWS V14.01,2013-05-24 01:15:00,
2013-05-23 20:20:00,57.7,27.3,30.27,ENE,65,2.0,10.0,31,0.00,,CLR,0.00,VWS V14.01,2013-05-24 01:20:00,
2013-05-23 20:25:00,57.5,27.9,30.27,ENE,70,3.0,10.0,32,0.00,,CLR,0.00,VWS V14.01,2013-05-24 01:25:00,
2013-05-23 20:30:00,57.2,27.6,30.27,ENE,72,5.0,5.0,32,0.00,,CLR,0.00,VWS V14.01,2013-05-24 01:30:00,
2013-05-23 20:35:00,56.8,28.8,30.27,ENE,72,5.0,6.0,34,0.00,,SCT110,0.00,VWS V14.01,2013-05-24 01:35:00,
2013-05-23 20:40:00,56.4,28.4,30.27,ENE,72,3.0,6.0,34,0.00,,SCT110,0.00,VWS V14.01,2013-05-24 01:40:00,
2013-05-23 20:45:00,56.2,28.9,30.27,East,99,1.0,6.0,35,0.00,,SCT110,0.00,VWS V14.01,2013-05-24 01:45:00,
2013-05-23 20:50:00,55.9,29.4,30.27,ENE,75,3.0,6.0,36,0.00,,SCT110,0.00,VWS V14.01,2013-05-24 01:50:00,
2013-05-23 20:55:00,55.7,29.9,30.27,East,82,2.0,6.0,37,0.00,,SCT110,0.00,VWS V14.01,2013-05-24 01:55:00,
2013-05-23 21:00:00,55.5,30.3,30.28,East,89,2.0,3.0,38,0.00,,SCT110,0.00,VWS V14.01,2013-05-24 02:00:00,
2013-05-23 21:05:00,55.3,30.1,30.28,East,95,1.0,3.0,38,0.00,,SCT110,0.00,VWS V14.01,2013-05-24 02:05:00,
2013-05-23 21:10:00,54.9,30.4,30.28,East,89,2.0,3.0,39,0.00,,SCT110,0.00,VWS V14.01,2013-05-24 02:10:00,
2013-05-23 21:15:00,54.6,30.2,30.28,East,82,3.0,3.0,39,0.00,,SCT110,0.00,VWS V14.01,2013-05-24 02:15:00,
2013-05-23 21:20:00,54.3,29.9,30.28,East,84,3.0,4.0,39,0.00,,SCT110,0.00,VWS V14.01,2013-05-24 02:20:00,
2013-05-23 21:25:00,54.1,29.1,30.28,East,89,2.0,4.0,38,0.00,,SCT110,0.00,VWS V14.01,2013-05-24 02:25:00,
2013-05-23 21:30:00,54.0,29.0,30.28,East,91,2.0,3.0,38,0.00,,SCT110,0.00,VWS V14.01,2013-05-24 02:30:00,
2013-05-23 21:35:00,54.0,28.3,30.28,East,82,4.0,5.0,37,0.00,,BKN120,0.00,VWS V14.01,2013-05-24 02:35:00,
2013-05-23 21:40:00,53.7,28.7,30.28,East,90,5.0,6.0,38,0.00,,BKN120,0.00,VWS V14.01,2013-05-24 02:40:00,
2013-05-23 21:45:00,53.6,27.3,30.29,East,85,2.0,6.0,36,0.00,,BKN120,0.00,VWS V14.01,2013-05-24 02:45:00,
2013-05-23 21:50:00,53.4,28.5,30.29,East,98,1.0,6.0,38,0.00,,BKN120,0.00,VWS V14.01,2013-05-24 02:50:00,
2013-05-23 21:55:00,53.1,28.2,30.29,East,98,2.0,6.0,38,0.00,,BKN120,0.00,VWS V14.01,2013-05-24 02:55:00,
2013-05-23 22:00:00,53.1,28.2,30.29,East,92,2.0,3.0,38,0.00,,BKN120,0.00,VWS V14.01,2013-05-24 03:00:00,
2013-05-23 22:05:00,53.0,28.1,30.29,East,86,2.0,3.0,38,0.00,,BKN120,0.00,VWS V14.01,2013-05-24 03:05:00,
2013-05-23 22:10:00,52.7,27.8,30.30,East,96,2.0,3.0,38,0.00,,BKN120,0.00,VWS V14.01,2013-05-24 03:10:00,
2013-05-23 22:15:00,52.5,28.3,30.30,East,94,2.0,3.0,39,0.00,,BKN120,0.00,VWS V14.01,2013-05-24 03:15:00,
2013-05-23 22:20:00,52.1,28.5,30.30,East,99,2.0,3.0,40,0.00,,BKN120,0.00,VWS V14.01,2013-05-24 03:20:00,
2013-05-23 22:25:00,51.8,28.9,30.30,ESE,117,1.0,3.0,41,0.00,,BKN120,0.00,VWS V14.01,2013-05-24 03:25:00,
2013-05-23 22:30:00,51.6,29.9,30.31,ESE,117,2.0,2.0,43,0.00,,BKN120,0.00,VWS V14.01,2013-05-24 03:30:00,
2013-05-23 22:35:00,50.9,30.3,30.31,ESE,108,2.0,3.0,45,0.00,,BKN120,0.00,VWS V14.01,2013-05-24 03:35:00,
2013-05-23 22:40:00,50.6,30.6,30.31,ESE,108,1.0,3.0,46,0.00,,BKN120,0.00,VWS V14.01,2013-05-24 03:40:00,
2013-05-23 22:45:00,50.4,30.4,30.31,SE,128,1.0,3.0,46,0.00,,BKN120,0.00,VWS V14.01,2013-05-24 03:45:00,
2013-05-23 22:50:00,50.6,30.1,30.31,SE,142,2.0,3.0,45,0.00,,BKN120,0.00,VWS V14.01,2013-05-24 03:50:00,
2013-05-23 22:55:00,50.8,30.2,30.31,SE,132,2.0,3.0,45,0.00,,BKN120,0.00,VWS V14.01,2013-05-24 03:55:00,
2013-05-23 23:00:00,50.6,30.6,30.31,ESE,115,1.0,2.0,46,0.00,,BKN120,0.00,VWS V14.01,2013-05-24 04:00:00,
2013-05-23 23:01:00,50.6,30.6,30.31,ESE,116,1.0,2.0,46,0.00,,BKN120,0.00,VWS V14.01,2013-05-24 04:01:00,
2013-05-23 23:06:00,50.2,31.3,30.32,SE,131,1.0,2.0,48,0.00,,BKN120,0.00,VWS V14.01,2013-05-24 04:06:00,
2013-05-23 23:11:00,50.0,31.6,30.32,SE,134,1.0,2.0,49,0.00,,BKN120,0.00,VWS V14.01,2013-05-24 04:11:00,
2013-05-23 23:16:00,49.9,31.5,30.32,SSE,148,1.0,2.0,49,0.00,,BKN120,0.00,VWS V14.01,2013-05-24 04:16:00,
2013-05-23 23:21:00,49.8,31.9,30.32,SSE,150,1.0,2.0,50,0.00,,BKN120,0.00,VWS V14.01,2013-05-24 04:21:00,
2013-05-23 23:26:00,49.6,32.2,30.32,SE,134,1.0,2.0,51,0.00,,BKN120,0.00,VWS V14.01,2013-05-24 04:26:00,
2013-05-23 23:31:00,49.5,32.6,30.32,SE,145,1.0,2.0,52,0.00,,BKN120,0.00,VWS V14.01,2013-05-24 04:31:00,
2013-05-23 23:36:00,49.4,32.5,30.32,SE,139,1.0,2.0,52,0.00,,BKN110,0.00,VWS V14.01,2013-05-24 04:36:00,
2013-05-23 23:41:00,49.2,32.8,30.33,SSE,150,1.0,2.0,53,0.00,,BKN110,0.00,VWS V14.01,2013-05-24 04:41:00,
2013-05-23 23:46:00,49.0,32.6,30.33,SE,146,0.0,2.0,53,0.00,,BKN110,0.00,VWS V14.01,2013-05-24 04:46:00,
2013-05-23 23:51:00,48.9,33.0,30.33,SE,145,0.0,2.0,54,0.00,,BKN110,0.00,VWS V14.01,2013-05-24 04:51:00,
2013-05-23 23:56:00,48.6,32.7,30.33,SSE,167,0.0,2.0,54,0.00,,BKN110,0.00,VWS V14.01,2013-05-24 04:56:00,